地図

経路データ

SID SEASON NUMBER BASIN SUBBASIN NAME ISO_TIME NATURE LAT LON WMO_WIND WMO_PRES WMO_AGENCY TRACK_TYPE DIST2LAND LANDFALL IFLAG USA_AGENCY USA_ATCF_ID USA_LAT USA_LON USA_RECORD USA_STATUS USA_WIND USA_PRES USA_SSHS USA_R34_NE USA_R34_SE USA_R34_SW USA_R34_NW USA_R50_NE USA_R50_SE USA_R50_SW USA_R50_NW USA_R64_NE USA_R64_SE USA_R64_SW USA_R64_NW USA_POCI USA_ROCI USA_RMW USA_EYE TOKYO_LAT TOKYO_LON TOKYO_GRADE TOKYO_WIND TOKYO_PRES TOKYO_R50_DIR TOKYO_R50_LONG TOKYO_R50_SHORT TOKYO_R30_DIR TOKYO_R30_LONG TOKYO_R30_SHORT TOKYO_LAND CMA_LAT CMA_LON CMA_CAT CMA_WIND CMA_PRES HKO_LAT HKO_LON HKO_CAT HKO_WIND HKO_PRES NEWDELHI_LAT NEWDELHI_LON NEWDELHI_GRADE NEWDELHI_WIND NEWDELHI_PRES NEWDELHI_CI NEWDELHI_DP NEWDELHI_POCI REUNION_LAT REUNION_LON REUNION_TYPE REUNION_WIND REUNION_PRES REUNION_TNUM REUNION_CI REUNION_RMW REUNION_R34_NE REUNION_R34_SE REUNION_R34_SW REUNION_R34_NW REUNION_R50_NE REUNION_R50_SE REUNION_R50_SW REUNION_R50_NW REUNION_R64_NE REUNION_R64_SE REUNION_R64_SW REUNION_R64_NW BOM_LAT BOM_LON BOM_TYPE BOM_WIND BOM_PRES BOM_TNUM BOM_CI BOM_RMW BOM_R34_NE BOM_R34_SE BOM_R34_SW BOM_R34_NW BOM_R50_NE BOM_R50_SE BOM_R50_SW BOM_R50_NW BOM_R64_NE BOM_R64_SE BOM_R64_SW BOM_R64_NW BOM_ROCI BOM_POCI BOM_EYE BOM_POS_METHOD BOM_PRES_METHOD NADI_LAT NADI_LON NADI_CAT NADI_WIND NADI_PRES WELLINGTON_LAT WELLINGTON_LON WELLINGTON_WIND WELLINGTON_PRES DS824_LAT DS824_LON DS824_STAGE DS824_WIND DS824_PRES TD9636_LAT TD9636_LON TD9636_STAGE TD9636_WIND TD9636_PRES TD9635_LAT TD9635_LON TD9635_WIND TD9635_PRES TD9635_ROCI NEUMANN_LAT NEUMANN_LON NEUMANN_CLASS NEUMANN_WIND NEUMANN_PRES MLC_LAT MLC_LON MLC_CLASS MLC_WIND MLC_PRES USA_GUST BOM_GUST BOM_GUST_PER REUNION_GUST REUNION_GUST_PER USA_SEAHGT USA_SEARAD_NE USA_SEARAD_SE USA_SEARAD_SW USA_SEARAD_NW STORM_SPEED STORM_DIR
1968354S12108 1969 126 SI WA BEATIE 1968-12-18 23:00:00 NR -12.4000 108.400 main 515 515 __________O___ -1 -12.4000 108.400 1 9 201
1968354S12108 1969 126 SI WA BEATIE 1968-12-19 00:00:00 TS -12.5278 108.337 main 526 526 O________OP_O_ jtwc_sh SH071969 -12.4000 108.400 -1 -12.4000 108.400 TC -12.4194 108.392 1 -13.0000 108.100 TC 25 1001 7 209
1968354S12108 1969 126 SI WA BEATIE 1968-12-19 01:00:00 TS -12.5983 108.286 1001 bom main 537 537 P_____O__PP_P_ SH071969 -12.4167 108.378 -1 -13.0000 108.000 1001 -12.4167 108.378 TC -12.4387 108.383 1 -13.0000 108.100 TC 25 1001 3 215
1968354S12108 1969 126 SI WA BEATIE 1968-12-19 03:00:00 TS -12.6404 108.253 main 537 537 P_____P__PP_P_ SH071969 -12.4500 108.338 -1 -13.0000 108.000 -12.4500 108.338 TC -12.4765 108.367 1 -13.0000 108.100 TC 25 1001 1 215
1968354S12108 1969 126 SI WA BEATIE 1968-12-19 06:00:00 TS -12.6904 108.219 main 549 549 O_____P__OP_O_ jtwc_sh SH071969 -12.5000 108.300 -1 -13.0000 108.000 -12.5000 108.300 TC -12.5295 108.342 1 -13.0000 108.100 TC 25 1001 1 205
1968354S12108 1969 126 SI WA BEATIE 1968-12-19 09:00:00 TS -12.7350 108.203 main 549 549 P_____P__PP_P_ SH071969 -12.5500 108.300 -1 -13.0000 108.000 -12.5500 108.300 TC -12.5752 108.317 1 -13.0000 108.100 TC 25 1001 1 203
1968354S12108 1969 126 SI WA BEATIE 1968-12-19 11:00:00 TS -12.7533 108.201 main 560 560 P_____P__PO_P_ SH071969 -12.5833 108.303 -1 -13.0000 108.000 -12.5833 108.303 TC -12.6000 108.300 1 -13.0000 108.100 TC 25 1001 1 0
1968354S12108 1969 126 SI WA BEATIE 1968-12-19 12:00:00 TS -12.7621 108.198 main 560 560 O_____P__OP_O_ jtwc_sh SH071969 -12.6000 108.300 -1 -13.0000 108.000 -12.6000 108.300 TC -12.6105 108.292 1 -13.0000 108.100 TC 25 1001 1 201
1968354S12108 1969 126 SI WA BEATIE 1968-12-19 15:00:00 TS -12.7902 108.173 main 560 560 P_____P__PP_P_ SH071969 -12.6575 108.250 -1 -13.0000 108.000 -12.6575 108.250 TC -12.6358 108.267 1 -13.0000 108.100 TC 25 1001 1 231
1968354S12108 1969 126 SI WA BEATIE 1968-12-19 18:00:00 TS -12.8114 108.148 main 561 561 O_____P__OP_O_ jtwc_sh SH071969 -12.7000 108.200 -1 -13.0000 108.000 -12.7000 108.200 TC -12.6570 108.242 1 -13.0000 108.100 TC 25 1001 0 229
1968354S12108 1969 126 SI WA BEATIE 1968-12-19 21:00:00 TS -12.8160 108.143 main 561 561 P_____P__PP_P_ SH071969 -12.7000 108.200 -1 -13.0000 108.000 -12.7000 108.200 TC -12.6802 108.217 1 -13.0000 108.100 TC 25 1001 0 0
1968354S12108 1969 126 SI WA BEATIE 1968-12-19 23:00:00 TS -12.8188 108.141 main 561 561 P_____P__PO_P_ SH071969 -12.6969 108.203 -1 -13.0000 108.000 -12.6969 108.203 TC -12.7000 108.200 1 -13.0000 108.100 TC 25 1001 0 0
1968354S12108 1969 126 SI WA BEATIE 1968-12-20 00:00:00 TS -12.8313 108.132 main 561 561 O_____P__OP_O_ jtwc_sh SH071969 -12.7000 108.200 -1 -13.0000 108.000 -12.7000 108.200 TC -12.7145 108.192 1 -13.0000 108.100 TC 25 1001 1 0
1968354S12108 1969 126 SI WA BEATIE 1968-12-20 01:00:00 TS -12.8458 108.119 1001 bom main 561 561 P_____O__PP_P_ SH071969 -12.7110 108.186 -1 -13.0000 108.000 1001 -12.7110 108.186 TC -12.7302 108.183 1 -13.0000 108.100 TC 25 1001 1 227
1968354S12108 1969 126 SI WA BEATIE 1968-12-20 03:00:00 TS -12.8694 108.098 main 572 572 P_____P__PP_P_ SH071969 -12.7425 108.150 -1 -13.0000 108.000 -12.7425 108.150 TC -12.7642 108.167 1 -13.0000 108.100 TC 25 1001 1 213
1968354S12108 1969 126 SI WA BEATIE 1968-12-20 06:00:00 TS -12.9030 108.071 main 572 572 O_____P__OP_O_ jtwc_sh SH071969 -12.8000 108.100 -1 -13.0000 108.000 -12.8000 108.100 TC -12.8180 108.142 1 -13.0000 108.100 TC 25 1001 1 211
1968354S12108 1969 126 SI WA BEATIE 1968-12-20 09:00:00 TS -12.9283 108.066 main 572 572 P_____P__PP_P_ SH071969 -12.8500 108.100 -1 -13.0000 108.000 -12.8500 108.100 TC -12.8698 108.117 1 -13.0000 108.100 TC 25 1001 1 0
1968354S12108 1969 126 SI WA BEATIE 1968-12-20 11:00:00 TS -12.9445 108.064 main 572 572 P_____P__PO_P_ SH071969 -12.8833 108.103 -1 -13.0000 108.000 -12.8833 108.103 TC -12.9000 108.100 1 -13.0000 108.100 TC 25 1001 0 0
1968354S12108 1969 126 SI WA BEATIE 1968-12-20 12:00:00 TS -12.9520 108.062 main 583 583 O_____P__OP_O_ jtwc_sh SH071969 -12.9000 108.100 -1 -13.0000 108.000 -12.9000 108.100 TC -12.9117 108.092 1 -13.0000 108.100 TC 25 1001 1 217
1968354S12108 1969 126 SI WA BEATIE 1968-12-20 15:00:00 TS -12.9760 108.041 main 584 584 P_____P__PP_P_ SH071969 -12.9575 108.050 -1 -13.0000 108.000 -12.9575 108.050 TC -12.9412 108.067 1 -13.0000 108.100 TC 25 1001 1 221
1968354S12108 1969 126 SI WA BEATIE 1968-12-20 18:00:00 TS -12.9942 108.020 main 584 584 O_____P__OP_O_ jtwc_sh SH071969 -13.0000 108.000 -1 -13.0000 108.000 -13.0000 108.000 TC -12.9649 108.042 1 -13.0000 108.100 TC 25 1001 0 0
1968354S12108 1969 126 SI WA BEATIE 1968-12-20 21:00:00 TS -12.9977 108.017 main 584 584 P_____P__PP_P_ SH071969 -13.0000 108.000 -1 -13.0000 108.000 -13.0000 108.000 TC -12.9860 108.017 1 -13.0000 108.100 TC 25 1001 0 0
1968354S12108 1969 126 SI WA BEATIE 1968-12-20 23:00:00 TS -12.9990 108.017 main 584 584 P_____P__PO_P_ SH071969 -12.9969 108.003 -1 -13.0000 108.000 -12.9969 108.003 TC -13.0000 108.000 1 -13.0000 108.100 TC 25 1001 0 0
1968354S12108 1969 126 SI WA BEATIE 1968-12-21 00:00:00 TS -13.0014 108.015 main 584 584 O_____P__OP_O_ jtwc_sh SH071969 -13.0000 108.000 -1 -13.0000 108.000 -13.0000 108.000 TC -13.0083 107.993 1 -13.0000 108.100 TC 25 1001 0 0
1968354S12108 1969 126 SI WA BEATIE 1968-12-21 01:00:00 TS -13.0073 108.011 1001 bom main 584 584 P_____O__PP_P_ SH071969 -13.0136 107.986 -1 -13.0000 108.000 1001 -13.0136 107.986 TC -13.0167 107.986 1 -13.0000 108.100 TC 25 1001 1 0
1968354S12108 1969 126 SI WA BEATIE 1968-12-21 03:00:00 TS -13.0222 108.000 main 584 584 P_____P__PP_P_ SH071969 -13.0500 107.950 -1 -13.0000 108.011 -13.0500 107.950 TC -13.0333 107.972 1 -13.0000 108.100 TC 25 1001 1 205
1968354S12108 1969 126 SI WA BEATIE 1968-12-21 06:00:00 TS -13.0430 107.986 main 584 584 O_____P__OP_O_ jtwc_sh SH071969 -13.1000 107.900 -1 -12.9999 108.030 -13.1000 107.900 TC -13.0583 107.950 1 -13.0000 108.100 TC 25 1001 0 0
1968354S12108 1969 126 SI WA BEATIE 1968-12-21 09:00:00 TS -13.0472 107.988 main 584 584 P_____P__PP_P_ SH071969 -13.1000 107.900 -1 -12.9999 108.049 -13.1000 107.900 TC -13.0833 107.922 1 -13.0000 108.100 TC 25 1001 0 0
1968354S12108 1969 126 SI WA BEATIE 1968-12-21 11:00:00 TS -13.0489 107.988 main 584 584 P_____P__PO_P_ SH071969 -13.0969 107.903 -1 -12.9999 108.060 -13.0969 107.903 TC -13.1000 107.900 1 -13.0000 108.100 TC 25 1001 0 0
1968354S12108 1969 126 SI WA BEATIE 1968-12-21 12:00:00 TS -13.0518 107.987 main 595 595 O_____P__OP_O_ jtwc_sh SH071969 -13.1000 107.900 -1 -12.9999 108.064 -13.1000 107.900 TC -13.1108 107.889 1 -13.0000 108.100 TC 25 1001 0 0
1968354S12108 1969 126 SI WA BEATIE 1968-12-21 15:00:00 TS -13.0740 107.971 main 595 595 P_____P__PP_P_ SH071969 -13.1500 107.858 -1 -12.9999 108.072 -13.1500 107.858 TC -13.1442 107.852 1 -13.0000 108.115 TC 25 1001 1 218
1968354S12108 1969 126 SI WA BEATIE 1968-12-21 18:00:00 TS -13.0957 107.940 main 596 596 O_____P__OP_O_ jtwc_sh SH071969 -13.2000 107.800 -1 -12.9999 108.069 -13.2000 107.800 TC -13.1742 107.806 1 -13.0000 108.100 TC 25 1001 1 246
1968354S12108 1969 126 SI WA BEATIE 1968-12-21 21:00:00 TS -13.1016 107.895 main 596 596 P_____P__PP_P_ SH071969 -13.2075 107.757 -1 -12.9999 108.051 -13.2075 107.757 TC -13.1947 107.747 1 -13.0000 108.015 TC 25 1001 1 266
1968354S12108 1969 126 SI WA BEATIE 1968-12-21 23:00:00 TS -13.1009 107.855 main 596 596 P_____P__PO_P_ SH071969 -13.2026 107.722 -1 -12.9999 108.030 -13.2026 107.722 TC -13.2000 107.700 1 -13.0000 107.939 TC 25 1001 1 272
1968354S12108 1969 126 SI WA BEATIE 1968-12-22 00:00:00 TS -13.0999 107.831 main 597 597 O_____P__OP_O_ jtwc_sh SH071969 -13.2000 107.700 -1 -13.0000 108.016 -13.2000 107.700 TC -13.1996 107.672 1 -13.0000 107.900 TC 25 1001 1 271
1968354S12108 1969 126 SI WA BEATIE 1968-12-22 01:00:00 TS -13.1004 107.805 1001 bom main 597 597 P_____O__PP_P_ SH071969 -13.2026 107.672 -1 -13.0000 108.000 1001 4 -13.2026 107.672 TC -13.1974 107.642 1 -13.0000 107.867 TC 25 1001 2 270
1968354S12108 1969 126 SI WA BEATIE 1968-12-22 03:00:00 TS -13.1005 107.746 main 598 598 P_____P__PP_P_ SH071969 -13.2075 107.608 -1 -13.0000 107.955 -13.2075 107.608 TC -13.1879 107.577 1 -13.0000 107.800 TC 25 1001 2 272
1968354S12108 1969 126 SI WA BEATIE 1968-12-22 06:00:00 TS -13.0938 107.647 main 600 600 O_____P__OP_O_ jtwc_sh SH071969 -13.2000 107.500 -1 -13.0001 107.871 -13.2000 107.500 TC -13.1629 107.472 1 -13.0000 107.700 TC 25 1001 2 278
1968354S12108 1969 126 SI WA BEATIE 1968-12-22 09:00:00 TS -13.0738 107.543 main 601 601 P_____P__PP_P_ SH071969 -13.1575 107.392 -1 -13.0001 107.771 -13.1575 107.392 TC -13.1276 107.366 1 -13.0000 107.600 TC 25 1001 2 283
1968354S12108 1969 126 SI WA BEATIE 1968-12-22 11:00:00 TS -13.0565 107.474 main 601 592 P_____P__PO_P_ SH071969 -13.1193 107.328 -1 -13.0001 107.697 -13.1193 107.328 TC -13.1000 107.300 1 -13.0000 107.533 TC 25 1001 2 285
1968354S12108 1969 126 SI WA BEATIE 1968-12-22 12:00:00 TS -13.0480 107.443 main 592 592 O_____P__OP_O_ jtwc_sh SH071969 -13.1000 107.300 -1 -13.0001 107.658 -13.1000 107.300 TC -13.0879 107.280 1 -13.0000 107.500 TC 25 1002 2 287
1968354S12108 1969 126 SI WA BEATIE 1968-12-22 15:00:00 TS -13.0245 107.363 main 592 592 P_____P__PP_P_ SH071969 -13.0500 107.258 -1 -13.0001 107.535 -13.0500 107.258 TC -13.0465 107.230 1 -13.0000 107.408 TC 25 1002 2 287
1968354S12108 1969 126 SI WA BEATIE 1968-12-22 18:00:00 TS -12.9997 107.274 main 594 594 O_____P__OP_O_ jtwc_sh SH071969 -13.0000 107.200 -1 -13.0001 107.405 -13.0000 107.200 TC -12.9977 107.174 1 -13.0000 107.300 TC 25 1002 2 283
1968354S12108 1969 126 SI WA BEATIE 1968-12-22 21:00:00 TS -12.9761 107.150 main 597 597 P_____P__PP_P_ SH071969 -12.9575 107.080 -1 -13.0001 107.274 -12.9575 107.080 TC -12.9415 107.087 1 -13.0000 107.150 TC 25 1002 3 281
1968354S12108 1969 126 SI WA BEATIE 1968-12-22 23:00:00 TS -12.9575 107.052 main 598 588 P_____P__PO_P_ SH071969 -12.9224 106.967 -1 -13.0000 107.186 -12.9224 106.967 TC -12.9000 107.000 1 -13.0000 107.047 TC 25 1002 3 282
1968354S12108 1969 126 SI WA BEATIE 1968-12-23 00:00:00 TS -12.9452 106.997 main 588 588 O_____P__OP_O_ jtwc_sh SH071969 -12.9000 106.900 -1 -13.0000 107.143 -12.9000 106.900 TC -12.8710 106.939 1 -13.0000 107.000 TC 25 1003 3 285
1968354S12108 1969 126 SI WA BEATIE 1968-12-23 01:00:00 TS -12.9299 106.941 1003 bom main 590 590 P_____O__PP_P_ SH071969 -12.8698 106.828 -1 -13.0000 107.100 1003 -12.8698 106.828 TC -12.8401 106.871 1 -13.0000 106.961 TC 25 1003 4 286
1968354S12108 1969 126 SI WA BEATIE 1968-12-23 03:00:00 TS -12.8959 106.822 main 592 586 P_____P__PP_P_ SH071969 -12.8000 106.665 -1 -13.0000 107.016 -12.8000 106.665 TC -12.7755 106.716 1 -13.0000 106.893 TC 25 1003 4 286
1968354S12108 1969 126 SI WA BEATIE 1968-12-23 06:00:00 TS -12.8473 106.634 main 586 586 O_____P__OP_O_ jtwc_sh SH071969 -12.7000 106.400 -1 -13.0000 106.895 -12.7000 106.400 TC -12.6840 106.455 1 -13.0000 106.800 TC 25 1003 4 283
1968354S12108 1969 126 SI WA BEATIE 1968-12-23 09:00:00 TS -12.8122 106.447 main 591 591 P_____P__PP_P_ SH071969 -12.6275 106.143 -1 -13.0000 106.778 -12.6275 106.143 TC -12.6184 106.179 1 -13.0000 106.700 TC 25 1003 4 279
1968354S12108 1969 126 SI WA BEATIE 1968-12-23 11:00:00 TS -12.8009 106.326 main 594 594 P_____P__PO_P_ SH071969 -12.6026 105.978 -1 -13.0000 106.702 -12.6026 105.978 TC -12.6000 106.000 1 -13.0000 106.633 TC 25 1003 4 277
1968354S12108 1969 126 SI WA BEATIE 1968-12-23 12:00:00 TS -12.7902 106.256 main 594 594 O_____P__OP_O_ jtwc_sh SH071969 -12.6000 105.900 -1 -13.0000 106.665 -12.6000 105.900 TC -12.5937 105.933 1 -13.0000 106.600 TC 25 1003 4 273
1968354S12108 1969 126 SI WA BEATIE 1968-12-23 15:00:00 TS -12.7897 106.084 main 600 600 P_____P__PP_P_ SH071969 -12.6199 105.700 -1 -13.0000 106.554 -12.6199 105.700 TC -12.6033 105.741 1 -13.0000 106.500 TC 25 1003 3 265
1968354S12108 1969 126 SI WA BEATIE 1968-12-23 18:00:00 TS -12.8215 105.904 main 607 607 O_____P__OP_O_ jtwc_sh SH071969 -12.7000 105.500 -1 -13.0000 106.447 -12.7000 105.500 TC -12.6630 105.539 1 -13.0000 106.400 TC 25 1003 4 258
1968354S12108 1969 126 SI WA BEATIE 1968-12-23 21:00:00 TS -12.8752 105.669 main 620 620 P_____P__PP___ SH071969 -12.8124 105.280 -1 -13.0000 106.340 -12.8124 105.280 TC -12.7825 105.298 1 TC 6 255
1968354S12108 1969 126 SI WA BEATIE 1968-12-23 23:00:00 TS -12.9424 105.441 main 625 625 P_____P__PO___ SH071969 -12.9276 105.103 -1 -13.0000 106.270 -12.9276 105.103 TC -12.9000 105.100 1 TC 9 254
1968354S12108 1969 126 SI WA BEATIE 1968-12-24 00:00:00 TS -12.9936 105.241 main 640 640 O_____P__OP___ jtwc_sh SH071969 -13.0000 105.000 -1 -13.0000 106.235 -13.0000 105.000 TC -12.9760 104.987 1 14 254
1968354S12108 1969 126 SI WA BEATIE 1968-12-24 01:00:00 TS -13.0700 104.984 1003 bom main 656 656 P_____O__PP___ SH071969 -13.0828 104.892 -1 -13.0000 106.200 1003 -13.0828 104.892 TC -13.0617 104.865 1 13 245
1968354S12108 1969 126 SI WA BEATIE 1968-12-24 03:00:00 TS -13.2703 104.630 main 689 689 P________PP___ SH071969 -13.2774 104.645 -1 -13.2774 104.645 TC -13.2560 104.599 1 11 236
1968354S12108 1969 126 SI WA BEATIE 1968-12-24 06:00:00 TS -13.5934 104.183 main 734 734 O________OP___ jtwc_sh SH071969 -13.6000 104.200 -1 -13.6000 104.200 TC -13.5801 104.150 1 11 236
1968354S12108 1969 126 SI WA BEATIE 1968-12-24 09:00:00 TS -13.9116 103.666 main 785 785 P________PP___ SH071969 -13.9150 103.673 -1 -13.9150 103.673 TC -13.9048 103.652 1 12 239
1968354S12108 1969 126 SI WA BEATIE 1968-12-24 11:00:00 TS -14.1076 103.294 main 823 823 P________PO___ SH071969 -14.1114 103.291 -1 -14.1114 103.291 TC -14.1000 103.300 1 12 242
1968354S12108 1969 126 SI WA BEATIE 1968-12-24 12:00:00 TS -14.1947 103.108 main 842 842 O________OP___ jtwc_sh SH071969 -14.2000 103.100 -1 -14.2000 103.100 TC -14.1868 103.119 1 12 247
1968354S12108 1969 126 SI WA BEATIE 1968-12-24 15:00:00 TS -14.4130 102.551 main 887 887 P________PP___ SH071969 -14.4202 102.543 -1 -14.4202 102.543 TC -14.4057 102.560 1 12 250
1968354S12108 1969 126 SI WA BEATIE 1968-12-24 18:00:00 TS -14.5857 101.990 main 938 938 O________OP___ jtwc_sh SH071969 -14.6000 102.000 -1 -14.6000 102.000 TC -14.5761 101.984 1 12 255
1968354S12108 1969 126 SI WA BEATIE 1968-12-24 21:00:00 NR -14.7155 101.395 main 977 977 __________P___ SH071969 -1 TC -14.7155 101.395 1 12 257
1968354S12108 1969 126 SI WA BEATIE 1968-12-24 23:00:00 NR -14.8000 101.000 main 1006 __________O___ SH071969 -1 TC -14.8000 101.000 1 12 258

IBTrACS Databaseについて

本データベースは、米国NOAAが公開する1842年以降の世界の熱帯低気圧のベストトラックデータアーカイブInternational Best Track Archive for Climate Stewardship (IBTrACS)を、ウェブで閲覧しやすい形式に変換したものです。

最終更新日:2021-10-08